Startpagina
METAR-TAF:

METAR-TAF

Vliegvelden :

Flughafen St. Gallen-Altenrhein

Sankt Gallen, Zwitserland

breedte: 47-29-06N, lengte: 009-33-43E, hoogte: 398 m

Actueel weer

Dit bericht is 18 minuten geleden gemaakt, om 20:50 UTC
Wind 14 kt uit het westen met uitschieters tot 24 kt
Temperatuur 16°C
Vochtigheid 45%
Druk 1023 hPa
Zicht 10 km of meer
Gebroken wolken op 6500 ft

METAR: LSZR 232050Z AUTO 27014G24KT 9999 BKN065 16/04 Q1023

Tijdstip: 22:08 (21:08 UTC)

Verwachting

Dit bericht is 6 uur en het 43 minuten geleden gemaakt, om 14:25 UTC
Verwachting geldig van 23 om 15 UTC tot 23 om 24 UTC
Wind 10 kt uit het westen
Zicht 10 km of meer
Weinig wolken op 6500 ft
Wijzigt naar
van 23 om 16 UTC tot 23 om 19 UTC
Wind 13 kt uit het westen met uitschieters tot 28 kt

TAF: LSZR 231425Z 2315/2324 26010KT 9999 FEW065 BECMG 2316/2319 26013G28KT

Waarnemingen en weersverwachtingen van meer dan 4000 vliegvelden (METAR en TAF).

De beschikbare stations zijn de gele en rode punten op de kaart.

Ga met uw muis naar het station om de naam te zien.

Klik dan om waarnemingen en weersverwachtingen te zien.

kaart wijzigen: klik op de groene knoppen met een zwart kruis om in te zoomen, op de groene knop met een streepje om uit te zoomen of op de groene pijlen voor aangrenzende kaarten.


METAR-TAF: